Map

Track Data

SID SEASON NUMBER BASIN SUBBASIN NAME ISO_TIME NATURE LAT LON WMO_WIND WMO_PRES WMO_AGENCY TRACK_TYPE DIST2LAND LANDFALL IFLAG USA_AGENCY USA_ATCF_ID USA_LAT USA_LON USA_RECORD USA_STATUS USA_WIND USA_PRES USA_SSHS USA_R34_NE USA_R34_SE USA_R34_SW USA_R34_NW USA_R50_NE USA_R50_SE USA_R50_SW USA_R50_NW USA_R64_NE USA_R64_SE USA_R64_SW USA_R64_NW USA_POCI USA_ROCI USA_RMW USA_EYE TOKYO_LAT TOKYO_LON TOKYO_GRADE TOKYO_WIND TOKYO_PRES TOKYO_R50_DIR TOKYO_R50_LONG TOKYO_R50_SHORT TOKYO_R30_DIR TOKYO_R30_LONG TOKYO_R30_SHORT TOKYO_LAND CMA_LAT CMA_LON CMA_CAT CMA_WIND CMA_PRES HKO_LAT HKO_LON HKO_CAT HKO_WIND HKO_PRES NEWDELHI_LAT NEWDELHI_LON NEWDELHI_GRADE NEWDELHI_WIND NEWDELHI_PRES NEWDELHI_CI NEWDELHI_DP NEWDELHI_POCI REUNION_LAT REUNION_LON REUNION_TYPE REUNION_WIND REUNION_PRES REUNION_TNUM REUNION_CI REUNION_RMW REUNION_R34_NE REUNION_R34_SE REUNION_R34_SW REUNION_R34_NW REUNION_R50_NE REUNION_R50_SE REUNION_R50_SW REUNION_R50_NW REUNION_R64_NE REUNION_R64_SE REUNION_R64_SW REUNION_R64_NW BOM_LAT BOM_LON BOM_TYPE BOM_WIND BOM_PRES BOM_TNUM BOM_CI BOM_RMW BOM_R34_NE BOM_R34_SE BOM_R34_SW BOM_R34_NW BOM_R50_NE BOM_R50_SE BOM_R50_SW BOM_R50_NW BOM_R64_NE BOM_R64_SE BOM_R64_SW BOM_R64_NW BOM_ROCI BOM_POCI BOM_EYE BOM_POS_METHOD BOM_PRES_METHOD NADI_LAT NADI_LON NADI_CAT NADI_WIND NADI_PRES WELLINGTON_LAT WELLINGTON_LON WELLINGTON_WIND WELLINGTON_PRES DS824_LAT DS824_LON DS824_STAGE DS824_WIND DS824_PRES TD9636_LAT TD9636_LON TD9636_STAGE TD9636_WIND TD9636_PRES TD9635_LAT TD9635_LON TD9635_WIND TD9635_PRES TD9635_ROCI NEUMANN_LAT NEUMANN_LON NEUMANN_CLASS NEUMANN_WIND NEUMANN_PRES MLC_LAT MLC_LON MLC_CLASS MLC_WIND MLC_PRES USA_GUST BOM_GUST BOM_GUST_PER REUNION_GUST REUNION_GUST_PER USA_SEAHGT USA_SEARAD_NE USA_SEARAD_SE USA_SEARAD_SW USA_SEARAD_NW STORM_SPEED STORM_DIR
1901238N16338 1901 27 NA NA NOT_NAMED 1901-08-25 12:00:00 TS 16.0000 -22.0000 35 hurdat_atl main 504 504 O_____________ hurdat_atl AL061901 16.0000 -22.0000 TS 35 0 13 279
1901238N16338 1901 27 NA NA NOT_NAMED 1901-08-25 15:00:00 TS 16.1029 -22.6473 main 568 568 P_____________ AL061901 16.1029 -22.6473 TS 35 0 13 279
1901238N16338 1901 27 NA NA NOT_NAMED 1901-08-25 18:00:00 TS 16.2000 -23.3000 35 hurdat_atl main 644 644 O_____________ hurdat_atl AL061901 16.2000 -23.3000 TS 35 0 13 279
1901238N16338 1901 27 NA NA NOT_NAMED 1901-08-25 21:00:00 TS 16.2924 -23.9576 main 719 719 P_____________ AL061901 16.2924 -23.9576 TS 37 0 13 279
1901238N16338 1901 27 NA NA NOT_NAMED 1901-08-26 00:00:00 TS 16.4000 -24.6000 40 hurdat_atl main 784 784 O_____________ hurdat_atl AL061901 16.4000 -24.6000 TS 40 0 12 282
1901238N16338 1901 27 NA NA NOT_NAMED 1901-08-26 03:00:00 TS 16.5423 -25.2075 main 849 849 P_____________ AL061901 16.5423 -25.2075 TS 42 0 12 285
1901238N16338 1901 27 NA NA NOT_NAMED 1901-08-26 06:00:00 TS 16.7000 -25.8000 45 hurdat_atl main 916 916 O_____________ hurdat_atl AL061901 16.7000 -25.8000 TS 45 0 12 285
1901238N16338 1901 27 NA NA NOT_NAMED 1901-08-26 09:00:00 TS 16.8499 -26.4151 main 981 981 P_____________ AL061901 16.8499 -26.4151 TS 47 0 12 285
1901238N16338 1901 27 NA NA NOT_NAMED 1901-08-26 12:00:00 TS 17.0000 -27.0000 50 hurdat_atl main 1048 1048 O_____________ hurdat_atl AL061901 17.0000 -27.0000 TS 50 0 11 286
1901238N16338 1901 27 NA NA NOT_NAMED 1901-08-26 15:00:00 TS 17.1498 -27.5151 main 1102 1102 P_____________ AL061901 17.1498 -27.5151 TS 52 0 10 287
1901238N16338 1901 27 NA NA NOT_NAMED 1901-08-26 18:00:00 TS 17.3000 -28.0000 55 hurdat_atl main 1159 1159 O_____________ hurdat_atl AL061901 17.3000 -28.0000 TS 55 0 10 288
1901238N16338 1901 27 NA NA NOT_NAMED 1901-08-26 21:00:00 TS 17.4574 -28.5000 main 1216 1216 P_____________ AL061901 17.4574 -28.5000 TS 57 0 10 287
1901238N16338 1901 27 NA NA NOT_NAMED 1901-08-27 00:00:00 TS 17.6000 -29.0000 60 hurdat_atl main 1270 1270 O_____________ hurdat_atl AL061901 17.6000 -29.0000 TS 60 0 10 285
1901238N16338 1901 27 NA NA NOT_NAMED 1901-08-27 03:00:00 TS 17.7074 -29.5001 main 1324 1324 P_____________ AL061901 17.7074 -29.5001 TS 62 0 10 282
1901238N16338 1901 27 NA NA NOT_NAMED 1901-08-27 06:00:00 TS 17.8000 -30.0000 65 hurdat_atl main 1378 1378 O_____________ hurdat_atl AL061901 17.8000 -30.0000 HU 65 1 10 281
1901238N16338 1901 27 NA NA NOT_NAMED 1901-08-27 09:00:00 TS 17.8999 -30.5075 main 1432 1432 P_____________ AL061901 17.8999 -30.5075 HU 67 1 10 282
1901238N16338 1901 27 NA NA NOT_NAMED 1901-08-27 12:00:00 TS 18.0000 -31.0000 70 hurdat_atl main 1486 1486 O_____________ hurdat_atl AL061901 18.0000 -31.0000 HU 70 1 9 282
1901238N16338 1901 27 NA NA NOT_NAMED 1901-08-27 15:00:00 TS 18.0924 -31.4651 main 1539 1539 P_____________ AL061901 18.0924 -31.4651 HU 70 1 9 283
1901238N16338 1901 27 NA NA NOT_NAMED 1901-08-27 18:00:00 TS 18.2000 -31.9000 70 hurdat_atl main 1577 1577 O_____________ hurdat_atl AL061901 18.2000 -31.9000 HU 70 1 8 287
1901238N16338 1901 27 NA NA NOT_NAMED 1901-08-27 21:00:00 TS 18.3424 -32.3150 main 1616 1613 P_____________ AL061901 18.3424 -32.3150 HU 70 1 8 292
1901238N16338 1901 27 NA NA NOT_NAMED 1901-08-28 00:00:00 TS 18.5000 -32.7000 70 hurdat_atl main 1652 1652 O_____________ hurdat_atl AL061901 18.5000 -32.7000 HU 70 1 8 294
1901238N16338 1901 27 NA NA NOT_NAMED 1901-08-28 03:00:00 TS 18.6574 -33.0650 main 1690 1690 P_____________ AL061901 18.6574 -33.0650 HU 67 1 7 294
1901238N16338 1901 27 NA NA NOT_NAMED 1901-08-28 06:00:00 TS 18.8000 -33.4000 65 hurdat_atl main 1719 1719 O_____________ hurdat_atl AL061901 18.8000 -33.4000 HU 65 1 7 292
1901238N16338 1901 27 NA NA NOT_NAMED 1901-08-28 09:00:00 TS 18.9074 -33.7076 main 1748 1748 P_____________ AL061901 18.9074 -33.7076 HU 62 0 6 289
1901238N16338 1901 27 NA NA NOT_NAMED 1901-08-28 12:00:00 TS 19.0000 -34.0000 60 hurdat_atl main 1777 1777 O_____________ hurdat_atl AL061901 19.0000 -34.0000 TS 60 0 6 289
1901238N16338 1901 27 NA NA NOT_NAMED 1901-08-28 15:00:00 TS 19.0999 -34.2925 main 1806 1806 P_____________ AL061901 19.0999 -34.2925 TS 60 0 6 289
1901238N16338 1901 27 NA NA NOT_NAMED 1901-08-28 18:00:00 TS 19.2000 -34.6000 60 hurdat_atl main 1836 1836 O_____________ hurdat_atl AL061901 19.2000 -34.6000 TS 60 0 6 288
1901238N16338 1901 27 NA NA NOT_NAMED 1901-08-28 21:00:00 TS 19.2924 -34.9351 main 1865 1865 P_____________ AL061901 19.2924 -34.9351 TS 57 0 7 287
1901238N16338 1901 27 NA NA NOT_NAMED 1901-08-29 00:00:00 TS 19.4000 -35.3000 55 hurdat_atl main 1905 1905 O_____________ hurdat_atl AL061901 19.4000 -35.3000 TS 55 0 8 289
1901238N16338 1901 27 NA NA NOT_NAMED 1901-08-29 03:00:00 TS 19.5424 -35.6850 main 1945 1944 P_____________ AL061901 19.5424 -35.6850 TS 55 0 8 292
1901238N16338 1901 27 NA NA NOT_NAMED 1901-08-29 06:00:00 TS 19.7000 -36.1000 55 hurdat_atl main 1984 1984 O_____________ hurdat_atl AL061901 19.7000 -36.1000 TS 55 0 9 291
1901238N16338 1901 27 NA NA NOT_NAMED 1901-08-29 09:00:00 TS 19.8424 -36.5352 main 2024 2024 P_____________ AL061901 19.8424 -36.5352 TS 52 0 9 290
1901238N16338 1901 27 NA NA NOT_NAMED 1901-08-29 12:00:00 TS 20.0000 -37.0000 50 hurdat_atl main 2074 2074 O_____________ hurdat_atl AL061901 20.0000 -37.0000 TS 50 0 10 291
1901238N16338 1901 27 NA NA NOT_NAMED 1901-08-29 15:00:00 TS 20.1849 -37.4926 main 2124 2124 P_____________ AL061901 20.1849 -37.4926 TS 50 0 10 293
1901238N16338 1901 27 NA NA NOT_NAMED 1901-08-29 18:00:00 TS 20.4000 -38.0000 50 hurdat_atl main 2174 2174 O_____________ hurdat_atl AL061901 20.4000 -38.0000 TS 50 0 11 296
1901238N16338 1901 27 NA NA NOT_NAMED 1901-08-29 21:00:00 TS 20.6424 -38.5001 main 2224 2223 P_____________ AL061901 20.6424 -38.5001 TS 47 0 11 298
1901238N16338 1901 27 NA NA NOT_NAMED 1901-08-30 00:00:00 TS 20.9000 -39.0000 45 hurdat_atl main 2273 2272 O_____________ hurdat_atl AL061901 20.9000 -39.0000 TS 45 0 11 298
1901238N16338 1901 27 NA NA NOT_NAMED 1901-08-30 03:00:00 TS 21.1424 -39.5002 main 2272 2263 P_____________ AL061901 21.1424 -39.5002 TS 45 0 11 298
1901238N16338 1901 27 NA NA NOT_NAMED 1901-08-30 06:00:00 TS 21.4000 -40.0000 45 hurdat_atl main 2266 2255 O_____________ hurdat_atl AL061901 21.4000 -40.0000 TS 45 0 11 300
1901238N16338 1901 27 NA NA NOT_NAMED 1901-08-30 09:00:00 TS 21.6774 -40.5003 main 2260 2251 P_____________ AL061901 21.6774 -40.5003 TS 42 0 11 303
1901238N16338 1901 27 NA NA NOT_NAMED 1901-08-30 12:00:00 TS 22.0000 -41.0000 40 hurdat_atl main 2257 2251 O_____________ hurdat_atl AL061901 22.0000 -41.0000 TS 40 0 12 307
1901238N16338 1901 27 NA NA NOT_NAMED 1901-08-30 15:00:00 TS 22.3828 -41.4993 main 2265 2259 P_____________ AL061901 22.3828 -41.4993 TS 37 0 12 311
1901238N16338 1901 27 NA NA NOT_NAMED 1901-08-30 18:00:00 TS 22.8000 -42.0000 35 hurdat_atl main 2275 O_____________ hurdat_atl AL061901 22.8000 -42.0000 TS 35 0 12 312

About IBTrACS Database

This database is a web-friendly format of International Best Track Archive for Climate Stewardship (IBTrACS), a global best track data archive curated by NOAA dating back to 1842.

Updated: 2021-12-01